createdAt,value
2017-11-17T00:01:09.239Z,55.03
2017-11-17T00:03:36.889Z,65.90
2017-11-17T00:06:04.544Z,66.67
2017-11-17T00:08:32.140Z,63.27
2017-11-17T00:10:59.848Z,63.73
2017-11-17T00:13:27.503Z,70.17
2017-11-17T00:15:55.200Z,45.50
2017-11-17T00:18:22.859Z,45.90
2017-11-17T00:20:50.565Z,59.67
2017-11-17T00:23:18.225Z,58.87
2017-11-17T00:25:45.936Z,53.33
2017-11-17T00:28:13.591Z,39.63
2017-11-17T00:30:41.312Z,52.83
2017-11-17T00:33:08.962Z,43.97
2017-11-17T00:35:36.648Z,40.90
2017-11-17T00:38:04.319Z,45.13
2017-11-17T00:40:32.008Z,44.80
2017-11-17T00:42:59.667Z,35.23
2017-11-17T00:45:27.378Z,37.13
2017-11-17T00:47:55.039Z,27.87
2017-11-17T00:50:22.730Z,31.33
2017-11-17T00:52:50.432Z,24.60
2017-11-17T00:55:18.073Z,27.63
2017-11-17T00:57:45.774Z,21.97
2017-11-17T01:00:13.483Z,21.33
2017-11-17T01:02:41.193Z,16.53
2017-11-17T01:05:08.853Z,18.93
2017-11-17T01:07:36.483Z,15.93
2017-11-17T01:10:04.148Z,17.03
2017-11-17T01:12:31.837Z,16.87
2017-11-17T01:14:59.485Z,14.90
2017-11-17T01:17:27.168Z,10.20
2017-11-17T01:19:54.825Z,12.50
2017-11-17T01:22:22.515Z,11.93
2017-11-17T01:24:50.167Z,8.10
2017-11-17T01:27:17.792Z,8.50
2017-11-17T01:29:45.441Z,5.70
2017-11-17T01:32:13.203Z,6.77
2017-11-17T01:34:40.866Z,6.27
2017-11-17T01:37:08.548Z,7.23
2017-11-17T01:39:36.452Z,5.33
2017-11-17T01:42:04.180Z,5.77
2017-11-17T01:44:31.831Z,12.60
2017-11-17T01:46:59.431Z,10.47
2017-11-17T01:49:27.153Z,7.47
2017-11-17T01:51:54.802Z,7.90
2017-11-17T01:54:22.487Z,7.17
2017-11-17T01:56:50.144Z,8.03
2017-11-17T01:59:17.900Z,7.90
2017-11-17T02:01:45.570Z,6.23
2017-11-17T02:04:13.268Z,4.50
2017-11-17T02:06:41.026Z,3.80
2017-11-17T02:09:08.736Z,4.80
2017-11-17T02:11:36.409Z,3.47
2017-11-17T02:14:04.095Z,9.47
2017-11-17T02:16:31.683Z,4.57
2017-11-17T02:18:59.369Z,4.63
2017-11-17T02:21:27.043Z,3.70
2017-11-17T02:23:54.733Z,4.93
2017-11-17T02:26:22.392Z,6.43
2017-11-17T02:28:50.106Z,5.00
2017-11-17T02:31:17.812Z,6.10
2017-11-17T02:33:45.469Z,8.83
2017-11-17T02:36:13.152Z,5.63
2017-11-17T02:38:41.238Z,5.00
2017-11-17T02:41:08.980Z,7.47
2017-11-17T02:43:36.586Z,11.17
2017-11-17T02:46:04.317Z,5.60
2017-11-17T02:48:31.931Z,11.57
2017-11-17T02:50:59.666Z,8.63
2017-11-17T02:53:27.316Z,14.40
2017-11-17T02:55:55.013Z,7.53
2017-11-17T02:58:22.606Z,6.30
2017-11-17T03:00:50.328Z,7.57
2017-11-17T03:03:18.053Z,10.60
2017-11-17T03:05:45.724Z,6.10
2017-11-17T03:08:13.364Z,5.67
2017-11-17T03:10:41.055Z,12.73
2017-11-17T03:13:08.711Z,6.80
2017-11-17T03:15:36.346Z,9.80
2017-11-17T03:18:04.056Z,7.60
2017-11-17T03:20:31.784Z,9.23
2017-11-17T03:22:59.452Z,9.03
2017-11-17T03:25:27.168Z,8.83
2017-11-17T03:27:54.774Z,7.73
2017-11-17T03:30:22.489Z,11.03
2017-11-17T03:32:50.144Z,7.53
2017-11-17T03:35:17.801Z,10.73
2017-11-17T03:37:45.503Z,14.03
2017-11-17T03:40:13.520Z,8.47
2017-11-17T03:42:41.259Z,7.80
2017-11-17T03:45:08.934Z,13.03
2017-11-17T03:47:36.623Z,9.63
2017-11-17T03:50:04.329Z,6.97
2017-11-17T03:52:32.021Z,11.73
2017-11-17T03:54:59.672Z,14.07
2017-11-17T03:57:27.379Z,14.73
2017-11-17T03:59:55.053Z,4.90
2017-11-17T04:02:22.737Z,15.50
2017-11-17T04:04:50.402Z,8.40
2017-11-17T04:07:18.091Z,14.67
2017-11-17T04:09:45.747Z,13.60
2017-11-17T04:12:13.429Z,10.57
2017-11-17T04:14:41.146Z,16.57
2017-11-17T04:17:08.872Z,10.80
2017-11-17T04:19:36.608Z,11.70
2017-11-17T04:22:04.333Z,14.03
2017-11-17T04:24:32.040Z,9.30
2017-11-17T04:26:59.754Z,13.57
2017-11-17T04:29:27.469Z,7.97
2017-11-17T04:31:55.177Z,16.67
2017-11-17T04:34:22.891Z,16.53
2017-11-17T04:36:50.529Z,14.67
2017-11-17T04:39:18.257Z,24.50
2017-11-17T04:41:45.918Z,17.87
2017-11-17T04:44:13.633Z,16.87
2017-11-17T04:46:41.573Z,24.70
2017-11-17T04:49:09.333Z,12.80
2017-11-17T04:51:37.043Z,17.07
2017-11-17T04:54:05.121Z,15.73
2017-11-17T04:56:32.834Z,21.00
2017-11-17T04:59:00.506Z,11.60
2017-11-17T05:01:28.211Z,9.90
2017-11-17T05:03:55.914Z,16.13
2017-11-17T05:06:23.620Z,11.80
2017-11-17T05:08:51.353Z,12.77
2017-11-17T05:11:19.051Z,11.90
2017-11-17T05:13:46.762Z,14.63
2017-11-17T05:16:14.469Z,9.57
2017-11-17T05:18:42.191Z,10.33
2017-11-17T05:21:09.927Z,12.10
2017-11-17T05:23:37.584Z,13.73
2017-11-17T05:26:05.266Z,14.37
2017-11-17T05:28:32.929Z,11.93
2017-11-17T05:31:00.569Z,9.77
2017-11-17T05:33:28.157Z,9.77
2017-11-17T05:35:55.880Z,7.17
2017-11-17T05:38:23.608Z,9.90
2017-11-17T05:40:51.346Z,12.37
2017-11-17T05:43:19.383Z,23.20
2017-11-17T05:45:47.449Z,13.90
2017-11-17T05:48:15.156Z,14.60
2017-11-17T05:50:47.176Z,8.47
2017-11-17T05:53:16.345Z,6.33
2017-11-17T05:55:44.720Z,5.47
2017-11-17T05:58:13.863Z,6.80
2017-11-17T06:00:42.065Z,9.83
2017-11-17T06:03:09.800Z,7.73
2017-11-17T06:05:37.918Z,7.67
2017-11-17T06:08:05.659Z,13.60
2017-11-17T06:10:33.806Z,3.90
2017-11-17T06:13:01.651Z,9.40
2017-11-17T06:15:29.421Z,9.97
2017-11-17T06:17:57.154Z,3.83
2017-11-17T06:20:25.142Z,11.50
2017-11-17T06:22:53.072Z,3.00
2017-11-17T06:25:21.095Z,5.77
2017-11-17T06:27:49.677Z,8.80
2017-11-17T06:30:18.361Z,4.13
2017-11-17T06:32:46.369Z,12.10
2017-11-17T06:35:14.172Z,5.73
2017-11-17T06:37:41.815Z,5.37
2017-11-17T06:40:09.564Z,8.43
2017-11-17T06:42:37.664Z,15.07
2017-11-17T06:45:05.761Z,10.70
2017-11-17T06:47:33.671Z,6.13
2017-11-17T06:50:02.212Z,8.80
2017-11-17T06:52:30.349Z,5.67
2017-11-17T06:54:58.228Z,4.57
2017-11-17T06:57:27.006Z,5.77
2017-11-17T06:59:55.680Z,6.37
2017-11-17T07:02:23.941Z,2.93
2017-11-17T07:04:51.706Z,5.30
2017-11-17T07:07:19.598Z,4.80
2017-11-17T07:09:48.220Z,2.90
2017-11-17T07:12:15.983Z,3.80
2017-11-17T07:14:44.104Z,13.10
2017-11-17T07:17:12.591Z,6.37
2017-11-17T07:19:40.668Z,18.50
2017-11-17T07:22:08.465Z,10.27
2017-11-17T07:24:36.514Z,9.77
2017-11-17T07:27:04.590Z,4.60
2017-11-17T07:29:32.524Z,4.20
2017-11-17T07:32:00.278Z,13.27
2017-11-17T07:34:28.205Z,23.30
2017-11-17T07:36:56.459Z,19.50
2017-11-17T07:39:25.271Z,17.50
2017-11-17T07:41:53.033Z,12.17
2017-11-17T07:44:21.707Z,14.00
2017-11-17T07:46:49.690Z,9.67
2017-11-17T07:49:18.717Z,11.67
2017-11-17T07:51:48.798Z,7.27
2017-11-17T07:54:16.696Z,11.53
2017-11-17T07:56:44.550Z,19.03
2017-11-17T07:59:12.175Z,18.53
2017-11-17T08:01:39.809Z,13.40
2017-11-17T08:04:08.496Z,10.60
2017-11-17T08:06:37.318Z,6.50
2017-11-17T08:09:05.334Z,6.60
2017-11-17T08:11:33.175Z,13.80
2017-11-17T08:14:01.880Z,15.13
2017-11-17T08:16:30.332Z,10.70
2017-11-17T08:18:58.464Z,15.17
2017-11-17T08:21:26.179Z,15.57
2017-11-17T08:23:54.935Z,7.03
2017-11-17T08:26:24.769Z,7.97
2017-11-17T08:28:52.547Z,11.00
2017-11-17T08:31:21.094Z,12.97
2017-11-17T08:33:48.888Z,18.40
2017-11-17T08:36:17.034Z,18.10
2017-11-17T08:38:44.783Z,10.40
2017-11-17T08:41:12.690Z,15.40
2017-11-17T08:43:40.690Z,8.40
2017-11-17T08:46:08.425Z,9.00
2017-11-17T08:48:36.137Z,13.93
2017-11-17T08:51:04.053Z,14.57
2017-11-17T08:53:32.046Z,8.23
2017-11-17T08:55:59.884Z,17.60
2017-11-17T08:58:27.949Z,12.07
2017-11-17T09:00:56.682Z,14.80
2017-11-17T09:03:24.435Z,21.40
2017-11-17T09:05:56.173Z,11.97
2017-11-17T09:08:24.076Z,16.40
2017-11-17T09:10:52.172Z,16.43
2017-11-17T09:13:21.042Z,11.93
2017-11-17T09:15:49.079Z,15.87
2017-11-17T09:18:16.810Z,10.93
2017-11-17T09:20:44.606Z,12.67
2017-11-17T09:23:12.712Z,18.43
2017-11-17T09:25:40.498Z,15.50
2017-11-17T09:28:08.269Z,15.33
2017-11-17T09:30:36.232Z,16.10
2017-11-17T09:33:04.076Z,18.00
2017-11-17T09:35:31.855Z,18.30
2017-11-17T09:37:59.940Z,18.60
2017-11-17T09:40:27.762Z,16.30
2017-11-17T09:42:55.819Z,19.00
2017-11-17T09:45:24.431Z,11.63
2017-11-17T09:47:52.345Z,13.57
2017-11-17T09:50:20.609Z,15.00
2017-11-17T09:52:48.811Z,15.53
2017-11-17T09:55:21.303Z,16.27
2017-11-17T09:57:49.063Z,14.50
2017-11-17T10:00:17.014Z,13.73
2017-11-17T10:02:44.667Z,14.43
2017-11-17T10:05:12.734Z,16.90
2017-11-17T10:07:40.808Z,21.03
2017-11-17T10:10:09.123Z,16.43
2017-11-17T10:12:37.017Z,14.70
2017-11-17T10:15:05.003Z,17.20
2017-11-17T10:17:32.966Z,14.67
2017-11-17T10:20:01.094Z,15.43
2017-11-17T10:22:28.806Z,16.20
2017-11-17T10:24:56.820Z,13.07
2017-11-17T10:27:25.564Z,15.23
2017-11-17T10:29:53.532Z,11.90
2017-11-17T10:32:21.557Z,13.17
2017-11-17T10:34:49.637Z,14.10
2017-11-17T10:37:18.019Z,13.50
2017-11-17T10:39:46.971Z,16.77
2017-11-17T10:42:15.038Z,12.13
2017-11-17T10:44:43.236Z,19.23
2017-11-17T10:47:11.233Z,8.90
2017-11-17T10:49:38.932Z,16.77
2017-11-17T10:52:07.204Z,11.63
2017-11-17T10:54:35.304Z,10.07
2017-11-17T10:57:03.744Z,8.43
2017-11-17T10:59:33.606Z,10.43
2017-11-17T11:02:01.390Z,10.97
2017-11-17T11:04:29.416Z,11.93
2017-11-17T11:06:57.451Z,17.60
2017-11-17T11:09:25.228Z,17.30
2017-11-17T11:11:53.288Z,17.03
2017-11-17T11:14:21.452Z,12.27
2017-11-17T11:16:49.230Z,13.57
2017-11-17T11:19:17.243Z,12.30
2017-11-17T11:21:45.436Z,10.50
2017-11-17T11:24:13.275Z,13.83
2017-11-17T11:26:42.859Z,9.50
2017-11-17T11:29:11.782Z,16.00
2017-11-17T11:31:42.896Z,11.00
2017-11-17T11:34:10.660Z,15.50
2017-11-17T11:36:38.397Z,10.73
2017-11-17T11:39:06.762Z,10.00
2017-11-17T11:41:34.476Z,27.30
2017-11-17T11:44:02.199Z,12.17
2017-11-17T11:46:30.175Z,15.70
2017-11-17T11:48:58.425Z,6.87
2017-11-17T11:51:26.148Z,13.90
2017-11-17T11:53:54.024Z,8.30
2017-11-17T11:56:21.764Z,8.47
2017-11-17T11:58:49.803Z,14.57
2017-11-17T12:01:17.860Z,12.30
2017-11-17T12:03:45.858Z,11.60
2017-11-17T12:06:13.919Z,9.50
2017-11-17T12:08:41.600Z,11.77
2017-11-17T12:11:09.343Z,7.13
2017-11-17T12:13:37.750Z,17.27
2017-11-17T12:16:05.920Z,10.40
2017-11-17T12:18:33.599Z,10.73
2017-11-17T12:21:01.380Z,13.30
2017-11-17T12:23:29.130Z,12.23
2017-11-17T12:25:56.852Z,5.03
2017-11-17T12:28:24.540Z,12.00
2017-11-17T12:30:52.524Z,8.27
2017-11-17T12:33:20.495Z,14.07
2017-11-17T12:35:48.369Z,5.40
2017-11-17T12:38:16.081Z,8.00
2017-11-17T12:40:43.888Z,9.10
2017-11-17T12:43:12.539Z,9.23
2017-11-17T12:45:40.376Z,6.50
2017-11-17T12:48:08.065Z,12.90
2017-11-17T12:50:36.075Z,9.97
2017-11-17T12:53:04.124Z,10.73
2017-11-17T12:55:31.825Z,10.70
2017-11-17T12:58:00.258Z,7.23
2017-11-17T13:00:28.335Z,13.37
2017-11-17T13:02:56.039Z,10.90
2017-11-17T13:05:24.260Z,11.23
2017-11-17T13:07:52.055Z,6.60
2017-11-17T13:10:20.134Z,6.87
2017-11-17T13:12:48.066Z,12.43
2017-11-17T13:15:16.427Z,11.17
2017-11-17T13:17:44.600Z,6.60
2017-11-17T13:20:12.389Z,7.07
2017-11-17T13:22:40.202Z,8.87
2017-11-17T13:25:07.977Z,6.23
2017-11-17T13:27:36.974Z,9.93
2017-11-17T13:30:05.186Z,12.30
2017-11-17T13:32:32.956Z,7.40
2017-11-17T13:35:00.963Z,5.57
2017-11-17T13:37:28.950Z,7.93
2017-11-17T13:39:56.701Z,11.07
2017-11-17T13:42:24.472Z,7.07
2017-11-17T13:44:52.505Z,10.33
2017-11-17T13:47:20.329Z,9.50
2017-11-17T13:49:49.293Z,10.40
2017-11-17T13:52:18.693Z,9.20
2017-11-17T13:54:46.392Z,8.83
2017-11-17T13:57:14.484Z,8.47
2017-11-17T13:59:42.627Z,7.77
2017-11-17T14:02:10.580Z,9.07
2017-11-17T14:04:38.356Z,7.73
2017-11-17T14:07:06.435Z,8.67
2017-11-17T14:09:34.233Z,10.20
2017-11-17T14:12:02.023Z,11.00
2017-11-17T14:14:29.710Z,9.23
2017-11-17T14:16:57.883Z,6.30
2017-11-17T14:19:26.456Z,9.70
2017-11-17T14:21:54.508Z,10.03
2017-11-17T14:24:22.267Z,9.60
2017-11-17T14:26:49.917Z,7.70
2017-11-17T14:29:18.698Z,4.97
2017-11-17T14:31:46.504Z,8.90
2017-11-17T14:34:14.675Z,7.57
2017-11-17T14:36:42.471Z,10.53
2017-11-17T14:39:10.312Z,12.80
2017-11-17T14:41:39.105Z,8.27
2017-11-17T14:44:07.272Z,7.57
2017-11-17T14:46:34.960Z,8.33
2017-11-17T14:49:03.989Z,10.40
2017-11-17T14:51:31.702Z,7.27
2017-11-17T14:53:59.440Z,9.27
2017-11-17T14:56:27.949Z,14.67
2017-11-17T14:58:55.648Z,7.10
2017-11-17T15:01:23.485Z,7.43
2017-11-17T15:03:51.632Z,6.20
2017-11-17T15:06:20.422Z,9.40
2017-11-17T15:08:48.137Z,12.97
2017-11-17T15:11:16.212Z,9.57
2017-11-17T15:13:44.123Z,7.57
2017-11-17T15:16:12.369Z,6.70
2017-11-17T15:18:40.588Z,8.40
2017-11-17T15:21:08.574Z,7.10
2017-11-17T15:23:37.576Z,12.00
2017-11-17T15:26:05.727Z,6.40
2017-11-17T15:28:33.427Z,8.20
2017-11-17T15:31:01.208Z,6.03
2017-11-17T15:33:28.885Z,6.73
2017-11-17T15:35:56.657Z,6.53
2017-11-17T15:38:26.592Z,11.73
2017-11-17T15:40:54.641Z,8.57
2017-11-17T15:43:22.705Z,14.40
2017-11-17T15:45:51.380Z,15.37
2017-11-17T15:48:19.407Z,10.23
2017-11-17T15:50:47.301Z,16.57
2017-11-17T15:53:15.516Z,7.60
2017-11-17T15:55:43.914Z,9.30
2017-11-17T15:58:11.790Z,6.20
2017-11-17T16:00:39.548Z,8.63
2017-11-17T16:03:08.372Z,9.40
2017-11-17T16:05:36.396Z,14.87
2017-11-17T16:08:04.119Z,6.93
2017-11-17T16:10:31.867Z,5.07
2017-11-17T16:12:59.954Z,9.23
2017-11-17T16:15:27.674Z,12.80
2017-11-17T16:17:56.181Z,7.57
2017-11-17T16:20:24.004Z,12.47
2017-11-17T16:22:52.560Z,19.93
2017-11-17T16:25:20.263Z,9.27
2017-11-17T16:27:47.979Z,9.13
2017-11-17T16:30:16.013Z,15.73
2017-11-17T16:32:43.893Z,10.43
2017-11-17T16:35:11.731Z,12.10
2017-11-17T16:37:39.850Z,9.00
2017-11-17T16:40:08.832Z,8.47
2017-11-17T16:42:36.540Z,11.23
2017-11-17T16:45:04.269Z,13.03
2017-11-17T16:47:32.777Z,9.87
2017-11-17T16:50:01.065Z,6.80
2017-11-17T16:52:28.801Z,19.10
2017-11-17T16:54:56.933Z,11.90
2017-11-17T16:57:25.485Z,10.47
2017-11-17T16:59:53.272Z,11.93
2017-11-17T17:02:21.272Z,7.97
2017-11-17T17:04:49.448Z,13.70
2017-11-17T17:07:17.102Z,9.40
2017-11-17T17:09:44.932Z,9.90
2017-11-17T17:12:13.579Z,7.83
2017-11-17T17:14:41.292Z,12.63
2017-11-17T17:17:10.206Z,13.50
2017-11-17T17:19:38.824Z,8.07
2017-11-17T17:22:06.896Z,10.70
2017-11-17T17:24:34.691Z,7.80
2017-11-17T17:27:03.112Z,15.10
2017-11-17T17:29:31.209Z,15.03
2017-11-17T17:31:59.067Z,8.77
2017-11-17T17:34:27.087Z,8.40
2017-11-17T17:36:55.239Z,13.73
2017-11-17T17:39:23.252Z,7.40
2017-11-17T17:41:51.447Z,9.00
2017-11-17T17:44:19.533Z,9.63
2017-11-17T17:46:47.209Z,7.50
2017-11-17T17:49:16.103Z,10.53
2017-11-17T17:51:43.885Z,10.93
2017-11-17T17:54:12.869Z,12.50
2017-11-17T17:56:40.683Z,8.33
2017-11-17T17:59:08.400Z,15.73
2017-11-17T18:01:36.211Z,7.87
2017-11-17T18:04:03.967Z,11.20
2017-11-17T18:06:31.652Z,11.80
2017-11-17T18:08:59.425Z,11.57
2017-11-17T18:11:27.734Z,11.33
2017-11-17T18:13:55.509Z,7.43
2017-11-17T18:16:23.653Z,10.30
2017-11-17T18:18:51.724Z,12.43
2017-11-17T18:21:19.766Z,13.03
2017-11-17T18:23:48.306Z,11.87
2017-11-17T18:26:15.961Z,9.80
2017-11-17T18:28:43.789Z,4.93
2017-11-17T18:31:12.179Z,12.00
2017-11-17T18:33:40.100Z,8.43
2017-11-17T18:36:07.936Z,10.67
2017-11-17T18:38:35.809Z,16.53
2017-11-17T18:41:04.103Z,9.27
2017-11-17T18:43:31.915Z,11.27
2017-11-17T18:45:59.783Z,9.77
2017-11-17T18:48:27.954Z,12.43
2017-11-17T18:50:56.213Z,7.30
2017-11-17T18:53:24.309Z,12.23
2017-11-17T18:55:52.037Z,11.67
2017-11-17T18:58:19.904Z,9.03
2017-11-17T19:00:47.680Z,14.67
2017-11-17T19:03:15.595Z,8.50
2017-11-17T19:05:43.528Z,12.73
2017-11-17T19:08:11.810Z,13.17
2017-11-17T19:10:40.448Z,9.97
2017-11-17T19:13:08.304Z,12.03
2017-11-17T19:15:36.344Z,7.80
2017-11-17T19:18:04.285Z,8.73
2017-11-17T19:20:32.253Z,10.73
2017-11-17T19:23:01.003Z,11.23
2017-11-17T19:25:29.029Z,11.20
2017-11-17T19:27:57.881Z,10.83
2017-11-17T19:30:26.708Z,10.97
2017-11-17T19:32:55.260Z,11.60
2017-11-17T19:35:23.390Z,13.47
2017-11-17T19:37:51.748Z,13.20
2017-11-17T19:40:20.549Z,10.70
2017-11-17T19:42:49.638Z,12.50
2017-11-17T19:45:18.136Z,14.20
2017-11-17T19:47:46.155Z,14.73
2017-11-17T19:50:14.269Z,12.07
2017-11-17T19:52:43.802Z,11.73
2017-11-17T19:55:11.699Z,10.43
2017-11-17T19:57:41.637Z,17.33
2017-11-17T20:00:09.886Z,9.77
2017-11-17T20:02:38.692Z,11.73
2017-11-17T20:05:08.079Z,9.03
2017-11-17T20:07:38.828Z,13.60
2017-11-17T20:10:08.064Z,12.10
2017-11-17T20:12:37.699Z,12.97
2017-11-17T20:15:07.044Z,14.53
2017-11-17T20:17:37.286Z,19.90
2017-11-17T20:20:06.375Z,9.40
2017-11-17T20:22:35.427Z,9.83
2017-11-17T20:25:06.094Z,12.27
2017-11-17T20:27:34.962Z,10.20
2017-11-17T20:30:02.873Z,7.87
2017-11-17T20:32:32.283Z,7.90
2017-11-17T20:35:01.383Z,10.13
2017-11-17T20:37:29.252Z,9.60
2017-11-17T20:39:57.224Z,9.33
2017-11-17T20:42:25.633Z,5.67
2017-11-17T20:44:54.903Z,10.40
2017-11-17T20:47:23.968Z,11.00
2017-11-17T20:49:52.927Z,9.10
2017-11-17T20:52:21.914Z,12.43
2017-11-17T20:54:51.031Z,16.00
2017-11-17T20:57:21.085Z,8.60
2017-11-17T20:59:49.561Z,9.70
2017-11-17T21:02:17.740Z,13.03
2017-11-17T21:04:54.052Z,6.17
2017-11-17T21:07:23.270Z,10.07
2017-11-17T21:09:51.737Z,8.10
2017-11-17T21:12:20.957Z,5.60
2017-11-17T21:14:50.911Z,9.13
2017-11-17T21:17:20.117Z,14.27
2017-11-17T21:19:51.429Z,9.70
2017-11-17T21:22:22.036Z,7.30
2017-11-17T21:24:52.636Z,7.70
2017-11-17T21:27:20.597Z,7.27
2017-11-17T21:29:51.847Z,13.17
2017-11-17T21:32:20.210Z,13.40
2017-11-17T21:34:50.632Z,8.83
2017-11-17T21:37:18.542Z,6.60
2017-11-17T21:39:46.936Z,12.03
2017-11-17T21:42:15.237Z,8.50
2017-11-17T21:44:43.041Z,9.53
2017-11-17T21:47:10.848Z,7.60
2017-11-17T21:49:40.056Z,11.93
2017-11-17T21:52:08.893Z,10.33
2017-11-17T21:54:37.405Z,8.07
2017-11-17T21:57:06.141Z,8.77
2017-11-17T21:59:34.675Z,7.23
2017-11-17T22:02:02.562Z,9.70
2017-11-17T22:04:31.153Z,11.90
2017-11-17T22:06:58.993Z,13.13
2017-11-17T22:09:26.904Z,6.37
2017-11-17T22:11:54.675Z,7.67
2017-11-17T22:14:22.804Z,7.10
2017-11-17T22:16:51.473Z,10.63
2017-11-17T22:19:19.228Z,9.50
2017-11-17T22:21:46.990Z,5.50
2017-11-17T22:24:15.133Z,6.50
2017-11-17T22:26:42.976Z,11.67
2017-11-17T22:29:10.676Z,6.30
2017-11-17T22:31:38.905Z,12.83
2017-11-17T22:34:06.626Z,10.93
2017-11-17T22:36:34.735Z,13.20
2017-11-17T22:39:02.979Z,9.87
2017-11-17T22:41:30.660Z,6.00
2017-11-17T22:43:58.752Z,7.17
2017-11-17T22:46:26.595Z,10.07
2017-11-17T22:48:54.300Z,8.33
2017-11-17T22:51:22.120Z,5.60
2017-11-17T22:53:49.769Z,7.07
2017-11-17T22:56:17.739Z,11.20
2017-11-17T22:58:46.577Z,11.83
2017-11-17T23:01:14.292Z,15.00
2017-11-17T23:03:42.318Z,9.00
2017-11-17T23:06:10.056Z,9.23
2017-11-17T23:08:38.781Z,6.93
2017-11-17T23:11:06.481Z,13.50
2017-11-17T23:13:34.477Z,12.10
2017-11-17T23:16:02.414Z,13.13
2017-11-17T23:18:30.141Z,10.00
2017-11-17T23:20:59.100Z,5.43
2017-11-17T23:23:27.205Z,8.30
2017-11-17T23:25:54.948Z,7.20
2017-11-17T23:28:22.789Z,20.63
2017-11-17T23:30:50.881Z,7.27
2017-11-17T23:33:18.713Z,8.73
2017-11-17T23:35:46.476Z,16.40
2017-11-17T23:38:14.250Z,9.70
2017-11-17T23:40:41.997Z,9.00
2017-11-17T23:43:09.763Z,8.27
2017-11-17T23:45:37.470Z,8.13
2017-11-17T23:48:05.192Z,6.80
2017-11-17T23:50:33.235Z,7.47
2017-11-17T23:53:01.238Z,13.37
2017-11-17T23:55:29.516Z,9.93
2017-11-17T23:57:57.614Z,7.63
